KAJZ

Blake Field Airport

Delta, Colorado, USA
METAR KAJZ 210415Z AUTO 19005KT 10SM SCT032 SCT065 OVC075 04/02 A2974 RMK AO2 T00440024
Observed Flight Rules
Jan-21 @ 04:15 UTC (31 minutes ago) Visual Flight Rules
Wind Visibility Clouds
190° at 5 knots 10 miles
  • Scattered at 3,200' AGL
  • Scattered at 6,500' AGL
  • Overcast at 7,500' AGL
Temperatures Readings
Current 4°C / 39°F
Dewpoint 2°C / 36°F
Humidity 87%
Altimeter 29.74" Hg
Pressure 1007 hPa
Elevation 1583
METAR KAJZ 210415Z AUTO 19005KT 10SM SCT032 SCT065 OVC075 04/02 A2974 RMK AO2 T00440024
Observed Flight Rules
Jan-21 @ 04:15 UTC
(31 minutes ago)
VFR
Wind Visibility
190° at 5 knots 10 miles
Clouds
  • Scattered at 3,200' AGL
  • Scattered at 6,500' AGL
  • Overcast at 7,500' AGL
Temperature Dewpoint
4°C / 39°F 2°C / 36°F
Humidity Altimeter Pressure
87% 29.74" Hg 1007 hPa